sensor_id;sensor_type;location;lat;lon;timestamp;temperature;humidity
12039;DHT22;6080;48.818;9.526;2022-07-05T00:02:07;16.30;99.90
12039;DHT22;6080;48.818;9.526;2022-07-05T00:04:34;16.30;99.90
12039;DHT22;6080;48.818;9.526;2022-07-05T00:07:00;16.30;99.90
12039;DHT22;6080;48.818;9.526;2022-07-05T00:09:52;16.30;99.90
12039;DHT22;6080;48.818;9.526;2022-07-05T00:12:19;16.40;99.90
12039;DHT22;6080;48.818;9.526;2022-07-05T00:14:46;16.30;99.90
12039;DHT22;6080;48.818;9.526;2022-07-05T00:17:12;16.20;99.90
12039;DHT22;6080;48.818;9.526;2022-07-05T00:19:39;16.10;99.90
12039;DHT22;6080;48.818;9.526;2022-07-05T00:22:05;16.00;99.90
12039;DHT22;6080;48.818;9.526;2022-07-05T00:24:31;16.00;99.90
12039;DHT22;6080;48.818;9.526;2022-07-05T00:26:57;15.90;99.90
12039;DHT22;6080;48.818;9.526;2022-07-05T00:29:23;15.80;99.90
12039;DHT22;6080;48.818;9.526;2022-07-05T00:31:48;15.80;99.90
12039;DHT22;6080;48.818;9.526;2022-07-05T00:34:14;15.70;99.90
12039;DHT22;6080;48.818;9.526;2022-07-05T00:36:40;15.70;99.90
12039;DHT22;6080;48.818;9.526;2022-07-05T00:39:06;15.70;99.90
12039;DHT22;6080;48.818;9.526;2022-07-05T00:41:33;15.60;99.90
12039;DHT22;6080;48.818;9.526;2022-07-05T00:44:01;15.50;99.90
12039;DHT22;6080;48.818;9.526;2022-07-05T00:46:28;15.50;99.90
12039;DHT22;6080;48.818;9.526;2022-07-05T00:48:54;15.50;99.90
12039;DHT22;6080;48.818;9.526;2022-07-05T00:51:21;15.60;99.90
12039;DHT22;6080;48.818;9.526;2022-07-05T00:53:48;15.60;99.90
12039;DHT22;6080;48.818;9.526;2022-07-05T00:56:15;15.60;99.90
12039;DHT22;6080;48.818;9.526;2022-07-05T00:58:40;15.60;99.90
12039;DHT22;6080;48.818;9.526;2022-07-05T01:01:08;15.60;99.90
12039;DHT22;6080;48.818;9.526;2022-07-05T01:03:34;15.50;99.90
12039;DHT22;6080;48.818;9.526;2022-07-05T01:06:02;15.40;99.90
12039;DHT22;6080;48.818;9.526;2022-07-05T01:08:28;15.30;99.90
12039;DHT22;6080;48.818;9.526;2022-07-05T01:10:57;15.30;99.90
12039;DHT22;6080;48.818;9.526;2022-07-05T01:13:24;15.30;99.90
12039;DHT22;6080;48.818;9.526;2022-07-05T01:15:51;15.20;99.90
12039;DHT22;6080;48.818;9.526;2022-07-05T01:18:19;15.20;99.90
12039;DHT22;6080;48.818;9.526;2022-07-05T01:20:48;15.10;99.90
12039;DHT22;6080;48.818;9.526;2022-07-05T01:23:14;15.00;99.90
12039;DHT22;6080;48.818;9.526;2022-07-05T01:25:40;15.00;99.90
12039;DHT22;6080;48.818;9.526;2022-07-05T01:28:07;15.00;99.90
12039;DHT22;6080;48.818;9.526;2022-07-05T01:30:35;15.00;99.90
12039;DHT22;6080;48.818;9.526;2022-07-05T01:33:01;15.00;99.90
12039;DHT22;6080;48.818;9.526;2022-07-05T01:35:27;15.00;99.90
12039;DHT22;6080;48.818;9.526;2022-07-05T01:37:53;15.00;99.90
12039;DHT22;6080;48.818;9.526;2022-07-05T01:40:20;15.00;99.90
12039;DHT22;6080;48.818;9.526;2022-07-05T01:42:46;14.90;99.90
12039;DHT22;6080;48.818;9.526;2022-07-05T01:45:13;14.70;99.90
12039;DHT22;6080;48.818;9.526;2022-07-05T01:47:59;14.70;99.90
12039;DHT22;6080;48.818;9.526;2022-07-05T01:50:29;14.80;99.90
12039;DHT22;6080;48.818;9.526;2022-07-05T01:52:56;14.80;99.90
12039;DHT22;6080;48.818;9.526;2022-07-05T01:55:24;14.90;99.90
12039;DHT22;6080;48.818;9.526;2022-07-05T01:57:50;14.90;99.90
12039;DHT22;6080;48.818;9.526;2022-07-05T02:00:16;14.80;99.90
12039;DHT22;6080;48.818;9.526;2022-07-05T02:02:42;14.90;99.90
12039;DHT22;6080;48.818;9.526;2022-07-05T02:05:10;14.90;99.90
12039;DHT22;6080;48.818;9.526;2022-07-05T02:07:36;14.80;99.90
12039;DHT22;6080;48.818;9.526;2022-07-05T02:10:02;14.80;99.90
12039;DHT22;6080;48.818;9.526;2022-07-05T02:12:27;14.70;99.90
12039;DHT22;6080;48.818;9.526;2022-07-05T02:14:53;14.60;99.90
12039;DHT22;6080;48.818;9.526;2022-07-05T02:17:19;14.60;99.90
12039;DHT22;6080;48.818;9.526;2022-07-05T02:19:45;14.50;99.90
12039;DHT22;6080;48.818;9.526;2022-07-05T02:22:10;14.50;99.90
12039;DHT22;6080;48.818;9.526;2022-07-05T02:24:38;14.50;99.90
12039;DHT22;6080;48.818;9.526;2022-07-05T02:27:04;14.40;99.90
12039;DHT22;6080;48.818;9.526;2022-07-05T02:29:29;14.40;99.90
12039;DHT22;6080;48.818;9.526;2022-07-05T02:31:55;14.30;99.90
12039;DHT22;6080;48.818;9.526;2022-07-05T02:34:21;14.30;99.90
12039;DHT22;6080;48.818;9.526;2022-07-05T02:36:47;14.30;99.90
12039;DHT22;6080;48.818;9.526;2022-07-05T02:39:13;14.30;99.90
12039;DHT22;6080;48.818;9.526;2022-07-05T02:41:39;14.20;99.90
12039;DHT22;6080;48.818;9.526;2022-07-05T02:44:04;14.10;99.90
12039;DHT22;6080;48.818;9.526;2022-07-05T02:46:30;14.00;99.90
12039;DHT22;6080;48.818;9.526;2022-07-05T02:48:56;13.90;99.90
12039;DHT22;6080;48.818;9.526;2022-07-05T02:51:22;13.80;99.90
12039;DHT22;6080;48.818;9.526;2022-07-05T02:53:47;13.80;99.90
12039;DHT22;6080;48.818;9.526;2022-07-05T02:56:13;13.80;99.90
12039;DHT22;6080;48.818;9.526;2022-07-05T02:58:39;13.80;99.90
12039;DHT22;6080;48.818;9.526;2022-07-05T03:01:05;13.80;99.90
12039;DHT22;6080;48.818;9.526;2022-07-05T03:03:30;13.80;99.90
12039;DHT22;6080;48.818;9.526;2022-07-05T03:05:56;13.90;99.90
12039;DHT22;6080;48.818;9.526;2022-07-05T03:08:22;13.80;99.90
12039;DHT22;6080;48.818;9.526;2022-07-05T03:10:48;13.90;99.90
12039;DHT22;6080;48.818;9.526;2022-07-05T03:13:14;13.90;99.90
12039;DHT22;6080;48.818;9.526;2022-07-05T03:15:40;14.00;99.90
12039;DHT22;6080;48.818;9.526;2022-07-05T03:18:05;14.00;99.90
12039;DHT22;6080;48.818;9.526;2022-07-05T03:20:31;13.90;99.90
12039;DHT22;6080;48.818;9.526;2022-07-05T03:22:57;13.90;99.90
12039;DHT22;6080;48.818;9.526;2022-07-05T03:25:23;13.90;99.90
12039;DHT22;6080;48.818;9.526;2022-07-05T03:27:49;14.00;99.90
12039;DHT22;6080;48.818;9.526;2022-07-05T03:30:15;14.00;99.90
12039;DHT22;6080;48.818;9.526;2022-07-05T03:32:41;14.00;99.90
12039;DHT22;6080;48.818;9.526;2022-07-05T03:35:07;13.90;99.90
12039;DHT22;6080;48.818;9.526;2022-07-05T03:37:33;13.90;99.90
12039;DHT22;6080;48.818;9.526;2022-07-05T03:39:58;13.80;99.90
12039;DHT22;6080;48.818;9.526;2022-07-05T03:42:24;13.70;99.90
12039;DHT22;6080;48.818;9.526;2022-07-05T03:44:50;13.70;99.90
12039;DHT22;6080;48.818;9.526;2022-07-05T03:47:16;13.70;99.90
12039;DHT22;6080;48.818;9.526;2022-07-05T03:49:41;13.70;99.90
12039;DHT22;6080;48.818;9.526;2022-07-05T03:52:07;13.70;99.90
12039;DHT22;6080;48.818;9.526;2022-07-05T03:54:33;13.80;99.90
12039;DHT22;6080;48.818;9.526;2022-07-05T03:56:59;13.90;99.90
12039;DHT22;6080;48.818;9.526;2022-07-05T03:59:25;13.90;99.90
12039;DHT22;6080;48.818;9.526;2022-07-05T04:01:51;13.90;99.90
12039;DHT22;6080;48.818;9.526;2022-07-05T04:04:17;13.90;99.90
12039;DHT22;6080;48.818;9.526;2022-07-05T04:06:42;13.90;99.90
12039;DHT22;6080;48.818;9.526;2022-07-05T04:09:08;14.00;99.90
12039;DHT22;6080;48.818;9.526;2022-07-05T04:11:34;14.10;99.90
12039;DHT22;6080;48.818;9.526;2022-07-05T04:14:00;14.20;99.90
12039;DHT22;6080;48.818;9.526;2022-07-05T04:16:26;14.30;99.90
12039;DHT22;6080;48.818;9.526;2022-07-05T04:18:53;14.40;99.90
12039;DHT22;6080;48.818;9.526;2022-07-05T04:21:18;14.40;99.90
12039;DHT22;6080;48.818;9.526;2022-07-05T04:23:44;14.50;99.90
12039;DHT22;6080;48.818;9.526;2022-07-05T04:26:10;14.60;99.90
12039;DHT22;6080;48.818;9.526;2022-07-05T04:28:36;14.60;99.90
12039;DHT22;6080;48.818;9.526;2022-07-05T04:31:02;14.60;99.90
12039;DHT22;6080;48.818;9.526;2022-07-05T04:33:27;14.70;99.90
12039;DHT22;6080;48.818;9.526;2022-07-05T04:35:53;14.70;99.90
12039;DHT22;6080;48.818;9.526;2022-07-05T04:38:19;14.70;99.90
12039;DHT22;6080;48.818;9.526;2022-07-05T04:40:45;14.70;99.90
12039;DHT22;6080;48.818;9.526;2022-07-05T04:43:11;14.70;99.90
12039;DHT22;6080;48.818;9.526;2022-07-05T04:45:37;14.70;99.90
12039;DHT22;6080;48.818;9.526;2022-07-05T04:48:03;14.90;99.90
12039;DHT22;6080;48.818;9.526;2022-07-05T04:50:29;15.00;99.90
12039;DHT22;6080;48.818;9.526;2022-07-05T04:52:55;15.00;99.90
12039;DHT22;6080;48.818;9.526;2022-07-05T04:55:21;15.20;99.90
12039;DHT22;6080;48.818;9.526;2022-07-05T04:57:47;15.30;99.90
12039;DHT22;6080;48.818;9.526;2022-07-05T05:00:13;15.50;99.90
12039;DHT22;6080;48.818;9.526;2022-07-05T05:02:40;15.60;99.90
12039;DHT22;6080;48.818;9.526;2022-07-05T05:05:07;15.80;99.90
12039;DHT22;6080;48.818;9.526;2022-07-05T05:07:33;16.00;99.90
12039;DHT22;6080;48.818;9.526;2022-07-05T05:10:00;16.30;99.90
12039;DHT22;6080;48.818;9.526;2022-07-05T05:12:26;16.80;99.90
12039;DHT22;6080;48.818;9.526;2022-07-05T05:14:51;17.40;99.90
12039;DHT22;6080;48.818;9.526;2022-07-05T05:17:17;18.10;99.90
12039;DHT22;6080;48.818;9.526;2022-07-05T05:19:43;18.60;99.90
12039;DHT22;6080;48.818;9.526;2022-07-05T05:22:10;19.30;99.90
12039;DHT22;6080;48.818;9.526;2022-07-05T05:24:36;19.90;99.90
12039;DHT22;6080;48.818;9.526;2022-07-05T05:27:02;20.50;99.90
12039;DHT22;6080;48.818;9.526;2022-07-05T05:29:28;20.80;99.90
12039;DHT22;6080;48.818;9.526;2022-07-05T05:31:54;21.10;99.90
12039;DHT22;6080;48.818;9.526;2022-07-05T05:34:20;21.30;99.90
12039;DHT22;6080;48.818;9.526;2022-07-05T05:36:46;21.80;99.90
12039;DHT22;6080;48.818;9.526;2022-07-05T05:39:12;22.10;99.90
12039;DHT22;6080;48.818;9.526;2022-07-05T05:41:38;22.40;99.90
12039;DHT22;6080;48.818;9.526;2022-07-05T05:44:04;22.90;99.90
12039;DHT22;6080;48.818;9.526;2022-07-05T05:46:30;23.10;99.90
12039;DHT22;6080;48.818;9.526;2022-07-05T05:48:56;23.30;99.90
12039;DHT22;6080;48.818;9.526;2022-07-05T05:51:22;23.30;99.90
12039;DHT22;6080;48.818;9.526;2022-07-05T05:53:47;23.10;99.90
12039;DHT22;6080;48.818;9.526;2022-07-05T05:56:13;23.40;99.90
12039;DHT22;6080;48.818;9.526;2022-07-05T05:58:39;23.60;99.90
12039;DHT22;6080;48.818;9.526;2022-07-05T06:01:05;24.00;99.90
12039;DHT22;6080;48.818;9.526;2022-07-05T06:03:31;24.10;99.90
12039;DHT22;6080;48.818;9.526;2022-07-05T06:05:56;24.40;99.90
12039;DHT22;6080;48.818;9.526;2022-07-05T06:08:22;24.60;99.90
12039;DHT22;6080;48.818;9.526;2022-07-05T06:10:49;25.00;99.90
12039;DHT22;6080;48.818;9.526;2022-07-05T06:13:15;25.30;99.90
12039;DHT22;6080;48.818;9.526;2022-07-05T06:15:42;25.40;99.90
12039;DHT22;6080;48.818;9.526;2022-07-05T06:18:10;25.90;99.90
12039;DHT22;6080;48.818;9.526;2022-07-05T06:20:38;26.30;99.90
12039;DHT22;6080;48.818;9.526;2022-07-05T06:23:05;26.60;99.00
12039;DHT22;6080;48.818;9.526;2022-07-05T06:25:32;26.70;97.40
12039;DHT22;6080;48.818;9.526;2022-07-05T06:28:06;26.70;97.50
12039;DHT22;6080;48.818;9.526;2022-07-05T06:30:33;26.80;96.20
12039;DHT22;6080;48.818;9.526;2022-07-05T06:32:59;26.60;96.40
12039;DHT22;6080;48.818;9.526;2022-07-05T06:35:25;26.40;97.00
12039;DHT22;6080;48.818;9.526;2022-07-05T06:37:58;26.70;96.80
12039;DHT22;6080;48.818;9.526;2022-07-05T06:40:26;27.10;96.10
12039;DHT22;6080;48.818;9.526;2022-07-05T06:42:53;27.40;95.10
12039;DHT22;6080;48.818;9.526;2022-07-05T06:45:20;27.10;93.70
12039;DHT22;6080;48.818;9.526;2022-07-05T06:47:57;27.20;94.60
12039;DHT22;6080;48.818;9.526;2022-07-05T06:50:24;27.40;93.60
12039;DHT22;6080;48.818;9.526;2022-07-05T06:52:49;27.30;93.10
12039;DHT22;6080;48.818;9.526;2022-07-05T06:55:15;27.60;94.30
12039;DHT22;6080;48.818;9.526;2022-07-05T06:57:41;28.10;92.50
12039;DHT22;6080;48.818;9.526;2022-07-05T07:00:09;28.20;92.40
12039;DHT22;6080;48.818;9.526;2022-07-05T07:02:35;28.40;91.50
12039;DHT22;6080;48.818;9.526;2022-07-05T07:05:02;28.30;90.90
12039;DHT22;6080;48.818;9.526;2022-07-05T07:07:27;28.30;90.80
12039;DHT22;6080;48.818;9.526;2022-07-05T07:10:12;28.60;87.70
12039;DHT22;6080;48.818;9.526;2022-07-05T07:12:37;28.60;85.90
12039;DHT22;6080;48.818;9.526;2022-07-05T07:15:04;28.50;86.10
12039;DHT22;6080;48.818;9.526;2022-07-05T07:17:29;28.60;83.70
12039;DHT22;6080;48.818;9.526;2022-07-05T07:19:55;28.90;85.90
12039;DHT22;6080;48.818;9.526;2022-07-05T07:22:21;28.90;81.60
12039;DHT22;6080;48.818;9.526;2022-07-05T07:24:47;29.10;79.90
12039;DHT22;6080;48.818;9.526;2022-07-05T07:27:13;28.90;78.80
12039;DHT22;6080;48.818;9.526;2022-07-05T07:29:39;29.00;77.40
12039;DHT22;6080;48.818;9.526;2022-07-05T07:32:06;29.10;75.00
12039;DHT22;6080;48.818;9.526;2022-07-05T07:34:33;28.80;75.10
12039;DHT22;6080;48.818;9.526;2022-07-05T07:36:59;28.80;78.20
12039;DHT22;6080;48.818;9.526;2022-07-05T07:39:26;29.20;80.70
12039;DHT22;6080;48.818;9.526;2022-07-05T07:41:52;29.10;73.90
12039;DHT22;6080;48.818;9.526;2022-07-05T07:44:18;29.40;78.20
12039;DHT22;6080;48.818;9.526;2022-07-05T07:46:44;29.70;70.50
12039;DHT22;6080;48.818;9.526;2022-07-05T07:49:11;29.60;68.30
12039;DHT22;6080;48.818;9.526;2022-07-05T07:51:37;29.80;69.30
12039;DHT22;6080;48.818;9.526;2022-07-05T07:54:03;29.50;69.70
12039;DHT22;6080;48.818;9.526;2022-07-05T07:56:29;29.60;71.40
12039;DHT22;6080;48.818;9.526;2022-07-05T07:58:57;29.50;69.50
12039;DHT22;6080;48.818;9.526;2022-07-05T08:01:23;29.20;70.70
12039;DHT22;6080;48.818;9.526;2022-07-05T08:03:49;29.30;65.60
12039;DHT22;6080;48.818;9.526;2022-07-05T08:06:15;29.40;68.00
12039;DHT22;6080;48.818;9.526;2022-07-05T08:08:43;29.40;68.80
12039;DHT22;6080;48.818;9.526;2022-07-05T08:11:11;29.90;68.60
12039;DHT22;6080;48.818;9.526;2022-07-05T08:13:38;29.90;69.60
12039;DHT22;6080;48.818;9.526;2022-07-05T08:16:09;30.10;69.30
12039;DHT22;6080;48.818;9.526;2022-07-05T08:18:35;30.10;68.10
12039;DHT22;6080;48.818;9.526;2022-07-05T08:21:20;30.10;68.40
12039;DHT22;6080;48.818;9.526;2022-07-05T08:26:32;29.50;67.60
12039;DHT22;6080;48.818;9.526;2022-07-05T08:28:59;29.20;67.80
12039;DHT22;6080;48.818;9.526;2022-07-05T08:31:27;29.30;71.30
12039;DHT22;6080;48.818;9.526;2022-07-05T08:33:53;30.00;69.80
12039;DHT22;6080;48.818;9.526;2022-07-05T08:36:18;30.00;68.30
12039;DHT22;6080;48.818;9.526;2022-07-05T08:38:44;29.90;71.60
12039;DHT22;6080;48.818;9.526;2022-07-05T08:41:10;30.30;70.60
12039;DHT22;6080;48.818;9.526;2022-07-05T08:43:41;30.90;68.40
12039;DHT22;6080;48.818;9.526;2022-07-05T08:46:08;31.20;66.70
12039;DHT22;6080;48.818;9.526;2022-07-05T08:48:39;30.90;67.30
12039;DHT22;6080;48.818;9.526;2022-07-05T08:51:16;30.70;66.50
12039;DHT22;6080;48.818;9.526;2022-07-05T08:53:44;30.70;67.70
12039;DHT22;6080;48.818;9.526;2022-07-05T08:56:12;30.40;69.70
12039;DHT22;6080;48.818;9.526;2022-07-05T08:58:38;30.40;70.60
12039;DHT22;6080;48.818;9.526;2022-07-05T09:01:06;30.40;70.60
12039;DHT22;6080;48.818;9.526;2022-07-05T09:03:46;30.40;72.60
12039;DHT22;6080;48.818;9.526;2022-07-05T09:06:17;31.00;69.60
12039;DHT22;6080;48.818;9.526;2022-07-05T09:08:44;31.20;67.50
12039;DHT22;6080;48.818;9.526;2022-07-05T09:11:15;30.90;64.20
12039;DHT22;6080;48.818;9.526;2022-07-05T09:13:44;30.60;64.70
12039;DHT22;6080;48.818;9.526;2022-07-05T09:16:13;30.20;65.20
12039;DHT22;6080;48.818;9.526;2022-07-05T09:18:39;30.20;62.30
12039;DHT22;6080;48.818;9.526;2022-07-05T09:21:21;30.50;62.40
12039;DHT22;6080;48.818;9.526;2022-07-05T09:29:12;30.50;61.90
12039;DHT22;6080;48.818;9.526;2022-07-05T09:31:43;30.60;59.40
12039;DHT22;6080;48.818;9.526;2022-07-05T09:34:09;30.90;59.50
12039;DHT22;6080;48.818;9.526;2022-07-05T09:36:52;31.00;58.80
12039;DHT22;6080;48.818;9.526;2022-07-05T09:42:20;31.90;55.90
12039;DHT22;6080;48.818;9.526;2022-07-05T09:44:53;31.70;57.40
12039;DHT22;6080;48.818;9.526;2022-07-05T09:47:22;31.90;56.80
12039;DHT22;6080;48.818;9.526;2022-07-05T09:49:52;32.60;54.50
12039;DHT22;6080;48.818;9.526;2022-07-05T09:52:41;32.80;54.40
12039;DHT22;6080;48.818;9.526;2022-07-05T09:57:40;33.10;52.40
12039;DHT22;6080;48.818;9.526;2022-07-05T10:00:21;32.80;49.90
12039;DHT22;6080;48.818;9.526;2022-07-05T10:02:49;31.90;51.70
12039;DHT22;6080;48.818;9.526;2022-07-05T10:05:23;31.10;54.50
12039;DHT22;6080;48.818;9.526;2022-07-05T10:07:57;31.30;52.20
12039;DHT22;6080;48.818;9.526;2022-07-05T10:10:24;32.10;53.90
12039;DHT22;6080;48.818;9.526;2022-07-05T10:12:52;32.30;53.90
12039;DHT22;6080;48.818;9.526;2022-07-05T10:15:24;31.70;53.50
12039;DHT22;6080;48.818;9.526;2022-07-05T10:17:54;31.60;55.40
12039;DHT22;6080;48.818;9.526;2022-07-05T10:22:52;31.00;55.20
12039;DHT22;6080;48.818;9.526;2022-07-05T10:25:18;31.00;55.00
12039;DHT22;6080;48.818;9.526;2022-07-05T10:27:44;31.20;55.00
12039;DHT22;6080;48.818;9.526;2022-07-05T10:30:11;31.20;54.40
12039;DHT22;6080;48.818;9.526;2022-07-05T10:32:38;31.40;55.40
12039;DHT22;6080;48.818;9.526;2022-07-05T10:35:05;31.80;52.10
12039;DHT22;6080;48.818;9.526;2022-07-05T10:37:33;32.30;52.80
12039;DHT22;6080;48.818;9.526;2022-07-05T10:40:01;31.60;52.90
12039;DHT22;6080;48.818;9.526;2022-07-05T10:42:31;31.70;54.90
12039;DHT22;6080;48.818;9.526;2022-07-05T10:44:58;31.70;53.00
12039;DHT22;6080;48.818;9.526;2022-07-05T10:47:23;31.90;52.20
12039;DHT22;6080;48.818;9.526;2022-07-05T10:50:02;31.50;51.60
12039;DHT22;6080;48.818;9.526;2022-07-05T10:52:28;30.40;51.90
12039;DHT22;6080;48.818;9.526;2022-07-05T10:55:19;30.40;54.40
12039;DHT22;6080;48.818;9.526;2022-07-05T10:58:18;31.30;53.90
12039;DHT22;6080;48.818;9.526;2022-07-05T11:00:47;30.80;53.40
12039;DHT22;6080;48.818;9.526;2022-07-05T11:03:35;30.80;53.50
12039;DHT22;6080;48.818;9.526;2022-07-05T11:06:02;31.60;54.50
12039;DHT22;6080;48.818;9.526;2022-07-05T11:08:29;31.30;50.60
12039;DHT22;6080;48.818;9.526;2022-07-05T11:11:14;31.60;51.90
12039;DHT22;6080;48.818;9.526;2022-07-05T11:13:41;32.50;46.60
12039;DHT22;6080;48.818;9.526;2022-07-05T11:16:35;32.90;46.60
12039;DHT22;6080;48.818;9.526;2022-07-05T11:19:16;33.60;49.20
12039;DHT22;6080;48.818;9.526;2022-07-05T11:22:03;32.90;47.70
12039;DHT22;6080;48.818;9.526;2022-07-05T11:24:34;32.10;48.50
12039;DHT22;6080;48.818;9.526;2022-07-05T11:27:02;31.60;48.30
12039;DHT22;6080;48.818;9.526;2022-07-05T11:29:44;30.50;50.30
12039;DHT22;6080;48.818;9.526;2022-07-05T11:34:42;31.80;45.30
12039;DHT22;6080;48.818;9.526;2022-07-05T11:39:43;31.60;48.80
12039;DHT22;6080;48.818;9.526;2022-07-05T11:42:09;32.30;49.20
12039;DHT22;6080;48.818;9.526;2022-07-05T11:44:36;33.30;48.50
12039;DHT22;6080;48.818;9.526;2022-07-05T11:47:03;33.40;48.40
12039;DHT22;6080;48.818;9.526;2022-07-05T11:49:29;33.10;47.50
12039;DHT22;6080;48.818;9.526;2022-07-05T11:52:02;31.90;48.90
12039;DHT22;6080;48.818;9.526;2022-07-05T11:54:32;30.50;50.60
12039;DHT22;6080;48.818;9.526;2022-07-05T11:57:02;29.90;53.30
12039;DHT22;6080;48.818;9.526;2022-07-05T11:59:28;29.80;51.90
12039;DHT22;6080;48.818;9.526;2022-07-05T12:01:54;29.10;53.90
12039;DHT22;6080;48.818;9.526;2022-07-05T12:04:21;28.70;54.60
12039;DHT22;6080;48.818;9.526;2022-07-05T12:06:48;28.50;55.60
12039;DHT22;6080;48.818;9.526;2022-07-05T12:09:14;29.30;52.90
12039;DHT22;6080;48.818;9.526;2022-07-05T12:11:50;30.80;52.80
12039;DHT22;6080;48.818;9.526;2022-07-05T12:14:34;31.90;50.60
12039;DHT22;6080;48.818;9.526;2022-07-05T12:17:17;32.30;47.50
12039;DHT22;6080;48.818;9.526;2022-07-05T12:19:44;32.70;48.90
12039;DHT22;6080;48.818;9.526;2022-07-05T12:22:09;33.30;49.00
12039;DHT22;6080;48.818;9.526;2022-07-05T12:24:35;34.50;47.40
12039;DHT22;6080;48.818;9.526;2022-07-05T12:27:02;35.40;44.90
12039;DHT22;6080;48.818;9.526;2022-07-05T12:29:28;34.30;45.00
12039;DHT22;6080;48.818;9.526;2022-07-05T12:32:02;34.40;44.60
12039;DHT22;6080;48.818;9.526;2022-07-05T12:34:28;34.70;43.70
12039;DHT22;6080;48.818;9.526;2022-07-05T12:36:55;34.70;44.50
12039;DHT22;6080;48.818;9.526;2022-07-05T12:39:21;34.20;42.80
12039;DHT22;6080;48.818;9.526;2022-07-05T12:41:47;33.40;43.80
12039;DHT22;6080;48.818;9.526;2022-07-05T12:44:21;33.70;43.80
12039;DHT22;6080;48.818;9.526;2022-07-05T12:46:47;34.10;42.80
12039;DHT22;6080;48.818;9.526;2022-07-05T12:49:17;34.30;43.60
12039;DHT22;6080;48.818;9.526;2022-07-05T12:51:44;34.80;40.80
12039;DHT22;6080;48.818;9.526;2022-07-05T12:54:21;34.40;41.20
12039;DHT22;6080;48.818;9.526;2022-07-05T12:57:06;34.20;41.90
12039;DHT22;6080;48.818;9.526;2022-07-05T13:00:04;34.90;43.30
12039;DHT22;6080;48.818;9.526;2022-07-05T13:02:48;35.30;43.10
12039;DHT22;6080;48.818;9.526;2022-07-05T13:05:22;35.60;43.50
12039;DHT22;6080;48.818;9.526;2022-07-05T13:07:49;36.10;41.50
12039;DHT22;6080;48.818;9.526;2022-07-05T13:10:23;36.10;41.10
12039;DHT22;6080;48.818;9.526;2022-07-05T13:12:50;36.50;38.80
12039;DHT22;6080;48.818;9.526;2022-07-05T13:15:17;37.40;39.80
12039;DHT22;6080;48.818;9.526;2022-07-05T13:17:43;37.30;39.80
12039;DHT22;6080;48.818;9.526;2022-07-05T13:20:10;36.10;40.00
12039;DHT22;6080;48.818;9.526;2022-07-05T13:22:36;35.20;41.40
12039;DHT22;6080;48.818;9.526;2022-07-05T13:25:02;34.90;41.80
12039;DHT22;6080;48.818;9.526;2022-07-05T13:27:29;35.10;41.30
12039;DHT22;6080;48.818;9.526;2022-07-05T13:29:55;34.70;42.30
12039;DHT22;6080;48.818;9.526;2022-07-05T13:32:21;35.10;42.30
12039;DHT22;6080;48.818;9.526;2022-07-05T13:34:48;35.30;40.90
12039;DHT22;6080;48.818;9.526;2022-07-05T13:37:14;34.70;40.60
12039;DHT22;6080;48.818;9.526;2022-07-05T13:39:40;34.60;40.70
12039;DHT22;6080;48.818;9.526;2022-07-05T13:42:06;34.80;42.30
12039;DHT22;6080;48.818;9.526;2022-07-05T13:44:32;35.70;39.70
12039;DHT22;6080;48.818;9.526;2022-07-05T13:46:58;36.00;39.80
12039;DHT22;6080;48.818;9.526;2022-07-05T13:49:24;35.80;40.00
12039;DHT22;6080;48.818;9.526;2022-07-05T13:51:50;34.90;40.10
12039;DHT22;6080;48.818;9.526;2022-07-05T13:54:16;34.80;42.30
12039;DHT22;6080;48.818;9.526;2022-07-05T13:56:42;34.70;41.60
12039;DHT22;6080;48.818;9.526;2022-07-05T13:59:08;34.80;42.70
12039;DHT22;6080;48.818;9.526;2022-07-05T14:01:34;34.30;41.50
12039;DHT22;6080;48.818;9.526;2022-07-05T14:04:01;34.70;42.00
12039;DHT22;6080;48.818;9.526;2022-07-05T14:06:30;35.10;41.00
12039;DHT22;6080;48.818;9.526;2022-07-05T14:08:57;35.00;41.10
12039;DHT22;6080;48.818;9.526;2022-07-05T14:11:23;35.60;40.60
12039;DHT22;6080;48.818;9.526;2022-07-05T14:13:55;36.30;40.10
12039;DHT22;6080;48.818;9.526;2022-07-05T14:16:22;36.40;38.70
12039;DHT22;6080;48.818;9.526;2022-07-05T14:18:48;35.20;39.90
12039;DHT22;6080;48.818;9.526;2022-07-05T14:21:16;35.50;39.70
12039;DHT22;6080;48.818;9.526;2022-07-05T14:23:43;35.90;39.60
12039;DHT22;6080;48.818;9.526;2022-07-05T14:26:10;36.30;39.20
12039;DHT22;6080;48.818;9.526;2022-07-05T14:28:37;35.80;38.90
12039;DHT22;6080;48.818;9.526;2022-07-05T14:31:03;35.40;39.20
12039;DHT22;6080;48.818;9.526;2022-07-05T14:33:28;35.50;39.40
12039;DHT22;6080;48.818;9.526;2022-07-05T14:35:54;35.60;39.70
12039;DHT22;6080;48.818;9.526;2022-07-05T14:38:20;35.70;40.00
12039;DHT22;6080;48.818;9.526;2022-07-05T14:40:46;36.10;39.80
12039;DHT22;6080;48.818;9.526;2022-07-05T14:43:11;36.40;39.10
12039;DHT22;6080;48.818;9.526;2022-07-05T14:45:37;36.50;39.20
12039;DHT22;6080;48.818;9.526;2022-07-05T14:48:03;36.50;39.30
12039;DHT22;6080;48.818;9.526;2022-07-05T14:50:29;37.60;37.80
12039;DHT22;6080;48.818;9.526;2022-07-05T14:52:55;37.40;37.00
12039;DHT22;6080;48.818;9.526;2022-07-05T14:55:21;37.60;38.20
12039;DHT22;6080;48.818;9.526;2022-07-05T14:57:47;36.40;38.20
12039;DHT22;6080;48.818;9.526;2022-07-05T15:00:15;35.70;39.70
12039;DHT22;6080;48.818;9.526;2022-07-05T15:02:41;34.30;40.50
12039;DHT22;6080;48.818;9.526;2022-07-05T15:05:08;32.60;42.70
12039;DHT22;6080;48.818;9.526;2022-07-05T15:07:35;31.20;45.20
12039;DHT22;6080;48.818;9.526;2022-07-05T15:10:01;31.00;46.60
12039;DHT22;6080;48.818;9.526;2022-07-05T15:12:27;32.40;44.50
12039;DHT22;6080;48.818;9.526;2022-07-05T15:14:53;34.40;41.40
12039;DHT22;6080;48.818;9.526;2022-07-05T15:17:18;35.20;40.70
12039;DHT22;6080;48.818;9.526;2022-07-05T15:19:44;35.50;39.90
12039;DHT22;6080;48.818;9.526;2022-07-05T15:22:10;35.10;39.30
12039;DHT22;6080;48.818;9.526;2022-07-05T15:24:36;35.30;38.60
12039;DHT22;6080;48.818;9.526;2022-07-05T15:27:02;35.50;38.40
12039;DHT22;6080;48.818;9.526;2022-07-05T15:29:28;36.50;37.80
12039;DHT22;6080;48.818;9.526;2022-07-05T15:31:56;36.90;37.60
12039;DHT22;6080;48.818;9.526;2022-07-05T15:34:23;36.50;37.40
12039;DHT22;6080;48.818;9.526;2022-07-05T15:36:51;35.90;37.50
12039;DHT22;6080;48.818;9.526;2022-07-05T15:39:17;34.90;38.70
12039;DHT22;6080;48.818;9.526;2022-07-05T15:41:43;35.10;39.20
12039;DHT22;6080;48.818;9.526;2022-07-05T15:44:08;35.50;38.00
12039;DHT22;6080;48.818;9.526;2022-07-05T15:46:34;35.90;37.30
12039;DHT22;6080;48.818;9.526;2022-07-05T15:49:18;36.00;37.40
12039;DHT22;6080;48.818;9.526;2022-07-05T15:51:45;36.60;36.60
12039;DHT22;6080;48.818;9.526;2022-07-05T15:54:10;36.70;36.80
12039;DHT22;6080;48.818;9.526;2022-07-05T15:56:36;36.20;36.90
12039;DHT22;6080;48.818;9.526;2022-07-05T15:59:03;35.20;38.80
12039;DHT22;6080;48.818;9.526;2022-07-05T16:01:29;34.50;39.80
12039;DHT22;6080;48.818;9.526;2022-07-05T16:03:54;34.40;40.50
12039;DHT22;6080;48.818;9.526;2022-07-05T16:06:20;34.20;39.30
12039;DHT22;6080;48.818;9.526;2022-07-05T16:08:46;34.40;39.30
12039;DHT22;6080;48.818;9.526;2022-07-05T16:11:12;34.40;39.80